Time;durP1;ratioP1;P1;durP2;ratioP2;P2;SDS_P1;SDS_P2;PMS_P1;PMS_P2;Temp;Humidity;BMP_temperature;BMP_pressure;BME280_temperature;BME280_humidity;BME280_pressure;Samples;Min_cycle;Max_cycle;Signal;HPM_P1;HPM_P2
2021/10/23 00:02:27;;;;;;;4.95;2.10;;;22.30;54.40;;;;;;5219835;28;20051;-69
2021/10/23 00:05:00;;;;;;;6.45;2.00;;;22.30;54.40;;;;;;5209368;28;20063;-69
2021/10/23 00:07:32;;;;;;;6.20;1.77;;;22.30;54.50;;;;;;5211680;28;20056;-69
2021/10/23 00:10:05;;;;;;;4.00;2.15;;;22.30;54.40;;;;;;5210433;28;20310;-70
2021/10/23 00:12:38;;;;;;;10.55;2.25;;;22.30;54.30;;;;;;5197279;28;20570;-70
2021/10/23 00:15:10;;;;;;;3.42;1.70;;;22.20;54.20;;;;;;5229489;28;20723;-69
2021/10/23 00:17:43;;;;;;;3.10;1.75;;;22.30;54.30;;;;;;5194049;28;20071;-69
2021/10/23 00:20:15;;;;;;;5.90;2.10;;;22.20;54.20;;;;;;5211237;28;20052;-69
2021/10/23 00:22:48;;;;;;;3.63;1.52;;;22.20;54.10;;;;;;5228022;28;20059;-69
2021/10/23 00:25:20;;;;;;;4.30;1.85;;;22.20;54.00;;;;;;5194627;28;20041;-69
2021/10/23 00:27:55;;;;;;;3.80;2.00;;;22.20;53.90;;;;;;5227136;28;20047;-70
2021/10/23 00:30:28;;;;;;;4.72;2.47;;;22.20;53.90;;;;;;5195482;28;20404;-70
2021/10/23 00:33:02;;;;;;;7.72;1.90;;;22.20;53.90;;;;;;5226173;28;20052;-70
2021/10/23 00:35:35;;;;;;;6.72;1.70;;;22.20;53.90;;;;;;5193670;28;20051;-70
2021/10/23 00:38:07;;;;;;;5.40;1.80;;;22.20;53.80;;;;;;5193079;28;20045;-70
2021/10/23 00:40:40;;;;;;;5.60;2.17;;;22.20;53.70;;;;;;5226945;28;20048;-70
2021/10/23 00:43:12;;;;;;;5.65;2.17;;;22.20;53.70;;;;;;5206670;28;20071;-70
2021/10/23 00:45:45;;;;;;;2.70;1.52;;;22.20;53.70;;;;;;5210006;28;20044;-69
2021/10/23 00:48:17;;;;;;;2.87;1.63;;;22.20;53.80;;;;;;5227622;28;20102;-69
2021/10/23 00:50:50;;;;;;;2.35;1.73;;;22.20;53.70;;;;;;5193271;28;20045;-70
2021/10/23 00:53:22;;;;;;;2.67;1.80;;;22.20;53.60;;;;;;5228100;28;20036;-70
2021/10/23 00:55:55;;;;;;;3.88;1.90;;;22.20;53.60;;;;;;5204212;28;20037;-70
2021/10/23 00:58:28;;;;;;;2.38;1.48;;;22.20;53.60;;;;;;5209915;28;20033;-70
2021/10/23 01:01:01;;;;;;;5.82;2.05;;;22.20;53.60;;;;;;5211867;28;20045;-70
2021/10/23 01:03:34;;;;;;;6.65;2.00;;;22.10;53.60;;;;;;5196738;28;20055;-70
2021/10/23 01:06:08;;;;;;;6.10;2.00;;;22.10;53.50;;;;;;5228909;28;20040;-71
2021/10/23 01:08:40;;;;;;;5.70;2.00;;;22.20;53.50;;;;;;5228877;28;20060;-70
2021/10/23 01:11:13;;;;;;;6.55;1.65;;;22.20;53.40;;;;;;5212744;28;20063;-70
2021/10/23 01:13:45;;;;;;;3.63;1.80;;;22.10;53.10;;;;;;5208857;28;20040;-70
2021/10/23 01:16:18;;;;;;;3.95;1.98;;;22.20;53.20;;;;;;5230045;28;20052;-70
2021/10/23 01:18:51;;;;;;;4.40;1.80;;;22.10;53.00;;;;;;5206212;28;20067;-70
2021/10/23 01:21:24;;;;;;;4.53;2.03;;;22.10;52.90;;;;;;5229083;28;20052;-70
2021/10/23 01:23:56;;;;;;;7.00;2.00;;;22.10;52.90;;;;;;5229249;28;20301;-70
2021/10/23 01:26:28;;;;;;;2.72;1.70;;;22.10;52.90;;;;;;5228699;28;20078;-70
2021/10/23 01:29:02;;;;;;;4.32;1.85;;;22.10;52.90;;;;;;5229608;28;20441;-70
2021/10/23 01:31:35;;;;;;;5.68;2.08;;;22.10;52.80;;;;;;5227324;28;20052;-70
2021/10/23 01:34:22;;;;;;;4.25;1.73;;;22.10;52.80;;;;;;5230127;28;20047;-70
2021/10/23 01:36:58;;;;;;;4.05;2.03;;;22.10;52.70;;;;;;5228427;28;20951;-70
2021/10/23 01:39:34;;;;;;;3.22;1.70;;;22.10;52.80;;;;;;5230495;28;20051;-70
2021/10/23 01:42:06;;;;;;;3.40;1.80;;;22.10;52.70;;;;;;5230819;28;20044;-70
2021/10/23 01:44:39;;;;;;;2.88;1.50;;;22.10;52.50;;;;;;5232020;28;20405;-70
2021/10/23 01:47:11;;;;;;;3.10;1.67;;;22.10;52.60;;;;;;5233239;28;20056;-70
2021/10/23 01:49:44;;;;;;;2.83;1.50;;;22.10;52.50;;;;;;5231261;28;20402;-70
2021/10/23 01:52:16;;;;;;;3.63;1.50;;;22.10;52.40;;;;;;5229415;28;20270;-70
2021/10/23 01:54:49;;;;;;;4.78;2.47;;;22.10;52.40;;;;;;5229811;28;20041;-70
2021/10/23 01:57:21;;;;;;;7.20;1.52;;;22.10;52.40;;;;;;5232168;28;20044;-70
2021/10/23 01:59:54;;;;;;;4.38;1.67;;;22.10;52.30;;;;;;5232001;28;20053;-69
2021/10/23 02:02:26;;;;;;;4.10;1.83;;;22.10;52.20;;;;;;5232421;28;20055;-69
2021/10/23 02:04:59;;;;;;;2.70;1.80;;;22.10;52.20;;;;;;5233991;28;20505;-70
2021/10/23 02:07:31;;;;;;;4.50;1.77;;;22.00;52.10;;;;;;5217742;28;20048;-69
2021/10/23 02:10:05;;;;;;;4.68;1.90;;;22.00;52.10;;;;;;5201008;28;20051;-70
2021/10/23 02:12:38;;;;;;;3.05;1.70;;;22.00;51.90;;;;;;5217298;28;20489;-69
2021/10/23 02:15:10;;;;;;;2.65;1.42;;;22.00;51.90;;;;;;5220839;28;20511;-69
2021/10/23 02:17:43;;;;;;;3.08;1.73;;;22.00;52.30;;;;;;5232508;28;20056;-68
2021/10/23 02:20:16;;;;;;;5.50;1.70;;;22.00;52.50;;;;;;5231476;28;20048;-67
2021/10/23 02:22:49;;;;;;;4.78;1.60;;;22.10;52.70;;;;;;5235996;28;20057;-69
2021/10/23 02:25:21;;;;;;;5.20;1.92;;;22.10;52.80;;;;;;5233897;28;20040;-69
2021/10/23 02:27:53;;;;;;;3.92;1.90;;;22.10;52.90;;;;;;5234839;28;20048;-68
2021/10/23 02:30:26;;;;;;;3.05;1.40;;;22.10;53.10;;;;;;5235829;28;20044;-67
2021/10/23 02:32:58;;;;;;;3.92;1.55;;;22.10;53.20;;;;;;5235781;28;20058;-68
2021/10/23 02:35:30;;;;;;;3.47;1.65;;;22.10;53.30;;;;;;5229902;28;20055;-68
2021/10/23 02:38:03;;;;;;;3.30;1.60;;;22.10;53.40;;;;;;5231487;28;20036;-69
2021/10/23 02:40:38;;;;;;;4.30;1.85;;;22.10;53.60;;;;;;5218563;28;20059;-68
2021/10/23 02:43:12;;;;;;;;;;;22.20;53.70;;;;;;5226940;28;20464;-68
2021/10/23 02:45:44;;;;;;;3.90;1.90;;;22.10;53.70;;;;;;5228539;28;19924;-68
2021/10/23 02:48:16;;;;;;;6.30;1.65;;;22.20;53.90;;;;;;5231970;28;20059;-68
2021/10/23 02:50:49;;;;;;;2.53;1.30;;;22.10;54.00;;;;;;5222589;28;20036;-68
2021/10/23 02:53:21;;;;;;;2.45;1.42;;;22.20;54.00;;;;;;5231373;28;20047;-69
2021/10/23 02:55:53;;;;;;;2.05;1.17;;;22.10;54.10;;;;;;5228855;28;20051;-68
2021/10/23 02:58:27;;;;;;;3.22;1.35;;;22.20;54.20;;;;;;5230272;28;20059;-68
2021/10/23 03:01:00;;;;;;;4.47;1.48;;;22.20;54.20;;;;;;5223095;28;20048;-68
2021/10/23 03:03:33;;;;;;;3.25;1.35;;;22.20;54.30;;;;;;5228376;28;20044;-67
2021/10/23 03:06:05;;;;;;;4.32;1.25;;;22.20;54.30;;;;;;5230225;28;20311;-68
2021/10/23 03:08:37;;;;;;;7.85;1.85;;;22.20;54.40;;;;;;5199169;28;20075;-67
2021/10/23 03:11:11;;;;;;;6.97;1.77;;;22.20;54.50;;;;;;5208997;28;20051;-68
2021/10/23 03:13:44;;;;;;;4.45;1.45;;;22.20;54.60;;;;;;5231049;28;20045;-68
2021/10/23 03:16:17;;;;;;;5.78;1.60;;;22.20;54.60;;;;;;5226260;28;20048;-68
2021/10/23 03:18:51;;;;;;;2.00;1.02;;;22.20;54.70;;;;;;5231929;28;20627;-68
2021/10/23 03:21:23;;;;;;;4.05;1.65;;;22.30;54.80;;;;;;5233210;28;20045;-68
2021/10/23 03:23:55;;;;;;;4.30;1.30;;;22.20;54.80;;;;;;5230120;28;20075;-68
2021/10/23 03:26:28;;;;;;;7.53;1.63;;;22.20;54.80;;;;;;5231079;28;20052;-68
2021/10/23 03:29:01;;;;;;;7.38;1.55;;;22.30;55.00;;;;;;5230817;28;20091;-69
2021/10/23 03:31:33;;;;;;;4.22;1.65;;;22.30;55.10;;;;;;5229430;28;20071;-68
2021/10/23 03:34:06;;;;;;;6.00;1.80;;;22.20;55.10;;;;;;5231025;28;20044;-68
2021/10/23 03:36:39;;;;;;;4.00;1.60;;;22.20;55.20;;;;;;5233913;28;20044;-68
2021/10/23 03:39:12;;;;;;;6.20;1.40;;;22.30;55.30;;;;;;5227218;28;20044;-67
2021/10/23 03:41:44;;;;;;;9.45;2.17;;;22.20;55.20;;;;;;5231483;28;20056;-68
2021/10/23 03:44:17;;;;;;;6.33;1.70;;;22.20;55.30;;;;;;5232306;28;20053;-68
2021/10/23 03:46:50;;;;;;;9.33;2.20;;;22.20;55.40;;;;;;5231330;28;21427;-69
2021/10/23 03:49:22;;;;;;;6.57;1.52;;;22.20;55.40;;;;;;5229868;28;20424;-68
2021/10/23 03:51:55;;;;;;;6.40;1.90;;;22.20;55.40;;;;;;5231793;28;20045;-68
2021/10/23 03:54:27;;;;;;;6.20;1.88;;;22.20;55.60;;;;;;5231335;28;20071;-68
2021/10/23 03:56:59;;;;;;;8.18;1.80;;;22.20;55.80;;;;;;5232652;28;20045;-69
2021/10/23 03:59:32;;;;;;;3.53;1.60;;;22.20;55.70;;;;;;5233583;28;20507;-68
2021/10/23 04:02:04;;;;;;;6.93;1.77;;;22.20;55.60;;;;;;5230534;28;20055;-68
2021/10/23 04:04:37;;;;;;;9.77;1.73;;;22.20;55.70;;;;;;5228497;28;20865;-68
2021/10/23 04:07:10;;;;;;;11.30;2.03;;;22.20;55.70;;;;;;5227587;28;20049;-68
2021/10/23 04:09:43;;;;;;;5.60;1.67;;;22.20;55.70;;;;;;5229534;28;20040;-68
2021/10/23 04:12:15;;;;;;;8.60;1.90;;;22.20;55.80;;;;;;5226111;28;20052;-68
2021/10/23 04:14:48;;;;;;;6.05;1.60;;;22.20;55.80;;;;;;5227433;28;20056;-68
2021/10/23 04:17:20;;;;;;;5.32;1.70;;;22.20;55.80;;;;;;5225767;28;20390;-68
2021/10/23 04:19:53;;;;;;;5.65;1.38;;;22.20;55.80;;;;;;5229428;28;20044;-68
2021/10/23 04:22:25;;;;;;;7.03;1.60;;;22.20;55.80;;;;;;5231723;28;20055;-68
2021/10/23 04:24:58;;;;;;;3.88;1.55;;;22.20;55.90;;;;;;5230470;28;20041;-68
2021/10/23 04:27:30;;;;;;;5.80;1.73;;;22.30;56.00;;;;;;5231109;28;20040;-67
2021/10/23 04:30:03;;;;;;;8.02;1.80;;;22.30;56.00;;;;;;5230039;28;20041;-68
2021/10/23 04:32:36;;;;;;;8.20;1.67;;;22.30;56.00;;;;;;5228836;28;20152;-68
2021/10/23 04:35:08;;;;;;;4.97;1.63;;;22.30;56.00;;;;;;5219300;28;20554;-68
2021/10/23 04:37:41;;;;;;;4.70;1.67;;;22.30;56.10;;;;;;5221299;28;20409;-68
2021/10/23 04:40:13;;;;;;;7.18;1.60;;;22.30;56.20;;;;;;5228017;28;20361;-68
2021/10/23 04:42:45;;;;;;;4.60;1.52;;;22.30;56.10;;;;;;5226107;28;20041;-68
2021/10/23 04:45:18;;;;;;;6.30;1.65;;;22.30;56.10;;;;;;5227367;28;20088;-68
2021/10/23 04:47:50;;;;;;;6.10;1.65;;;22.30;56.10;;;;;;5226253;28;20681;-68
2021/10/23 04:50:23;;;;;;;4.13;1.55;;;22.30;56.10;;;;;;5228433;28;20063;-69
2021/10/23 04:52:55;;;;;;;7.10;1.40;;;22.30;56.10;;;;;;5229121;28;20044;-68
2021/10/23 04:55:27;;;;;;;5.80;1.40;;;22.40;56.20;;;;;;5231585;28;20036;-68
2021/10/23 04:58:00;;;;;;;8.77;2.35;;;22.40;56.20;;;;;;5229333;28;20816;-68
2021/10/23 05:00:32;;;;;;;5.45;2.17;;;22.40;56.20;;;;;;5222641;28;20040;-68
2021/10/23 05:03:05;;;;;;;6.15;1.58;;;22.40;56.20;;;;;;5227853;28;20056;-69
2021/10/23 05:05:38;;;;;;;5.45;1.38;;;22.40;56.30;;;;;;5227093;28;20052;-67
2021/10/23 05:08:10;;;;;;;6.67;1.67;;;22.40;56.30;;;;;;5228796;28;20767;-68
2021/10/23 05:10:42;;;;;;;4.45;1.38;;;22.40;56.30;;;;;;5227574;28;20365;-67
2021/10/23 05:13:15;;;;;;;5.68;1.88;;;22.50;56.40;;;;;;5227611;28;20041;-68
2021/10/23 05:15:47;;;;;;;4.93;1.80;;;22.40;56.40;;;;;;5215071;28;20040;-67
2021/10/23 05:18:20;;;;;;;11.05;2.17;;;22.40;56.40;;;;;;5218634;28;20654;-68
2021/10/23 05:20:52;;;;;;;9.98;1.77;;;22.50;56.50;;;;;;5225302;28;20051;-68
2021/10/23 05:23:25;;;;;;;6.30;1.63;;;22.50;56.50;;;;;;5222191;28;20508;-68
2021/10/23 05:25:57;;;;;;;7.50;1.60;;;22.50;56.50;;;;;;5226166;28;20424;-68
2021/10/23 05:28:29;;;;;;;6.35;1.88;;;22.50;56.50;;;;;;5228687;28;20060;-68
2021/10/23 05:31:04;;;;;;;4.82;1.80;;;22.50;56.60;;;;;;5204590;28;20389;-68
2021/10/23 05:33:36;;;;;;;8.27;1.98;;;22.50;56.60;;;;;;5227613;28;20468;-68
2021/10/23 05:36:09;;;;;;;5.40;2.17;;;22.50;56.60;;;;;;5225684;28;20417;-68
2021/10/23 05:38:41;;;;;;;6.43;2.10;;;22.50;56.60;;;;;;5228795;28;20063;-68
2021/10/23 05:41:13;;;;;;;8.27;1.90;;;22.50;56.70;;;;;;5221581;28;20055;-68
2021/10/23 05:43:46;;;;;;;6.25;1.38;;;22.60;56.70;;;;;;5214170;28;20744;-68
2021/10/23 05:46:18;;;;;;;6.15;1.33;;;22.60;56.80;;;;;;5225028;28;20048;-68
2021/10/23 05:48:51;;;;;;;4.75;2.03;;;22.60;56.70;;;;;;5223672;28;20048;-68
2021/10/23 05:51:24;;;;;;;8.38;2.15;;;22.60;56.80;;;;;;5228079;28;20055;-68
2021/10/23 05:53:57;;;;;;;8.35;1.33;;;22.60;56.80;;;;;;5220516;28;20044;-67
2021/10/23 05:56:29;;;;;;;6.97;1.88;;;22.60;56.80;;;;;;5226752;28;20068;-68
2021/10/23 05:59:11;;;;;;;6.18;1.55;;;22.60;56.80;;;;;;5222685;28;20045;-67
2021/10/23 06:01:44;;;;;;;5.10;1.52;;;22.60;56.80;;;;;;5226037;28;20048;-68
2021/10/23 06:04:17;;;;;;;5.80;1.80;;;22.60;56.80;;;;;;5227140;28;20053;-68
2021/10/23 06:06:49;;;;;;;7.18;2.10;;;22.60;56.80;;;;;;5226451;28;20075;-68
2021/10/23 06:09:21;;;;;;;4.57;1.67;;;22.60;56.90;;;;;;5226796;28;20055;-68
2021/10/23 06:11:59;;;;;;;3.92;1.40;;;22.60;57.50;;;;;;5225727;28;20413;-68
2021/10/23 06:14:32;;;;;;;5.70;1.77;;;22.60;56.90;;;;;;5223683;28;20060;-68
2021/10/23 06:17:07;;;;;;;7.10;1.65;;;22.60;56.90;;;;;;5220579;28;20047;-67
2021/10/23 06:19:41;;;;;;;2.67;1.20;;;22.60;57.00;;;;;;5226116;28;20048;-68
2021/10/23 06:22:13;;;;;;;5.72;1.30;;;22.60;56.90;;;;;;5224066;28;20530;-68
2021/10/23 06:24:45;;;;;;;5.78;1.55;;;22.60;57.00;;;;;;5222965;28;20375;-68
2021/10/23 06:27:18;;;;;;;6.25;1.55;;;22.60;57.00;;;;;;5226087;28;20048;-68
2021/10/23 06:29:50;;;;;;;3.55;1.58;;;22.60;57.00;;;;;;5220163;28;20072;-67
2021/10/23 06:32:23;;;;;;;5.97;1.60;;;22.70;57.20;;;;;;5225913;28;20071;-68
2021/10/23 06:34:55;;;;;;;9.48;2.50;;;22.60;57.10;;;;;;5223397;28;20041;-68
2021/10/23 06:37:30;;;;;;;4.38;1.50;;;22.70;57.20;;;;;;5224363;28;20503;-67
2021/10/23 06:40:03;;;;;;;5.97;1.63;;;22.60;57.10;;;;;;5227778;28;20051;-68
2021/10/23 06:42:38;;;;;;;7.83;2.10;;;22.60;57.10;;;;;;5225517;28;20701;-68
2021/10/23 06:45:14;;;;;;;5.55;1.67;;;22.60;57.20;;;;;;5208470;28;20053;-68
2021/10/23 06:47:46;;;;;;;7.30;1.95;;;22.70;57.30;;;;;;5228108;28;20044;-68
2021/10/23 06:50:18;;;;;;;4.68;1.60;;;22.70;57.40;;;;;;5232707;28;20519;-68
2021/10/23 06:52:51;;;;;;;6.07;1.50;;;22.70;57.40;;;;;;5227986;28;20045;-68
2021/10/23 06:55:23;;;;;;;4.55;1.30;;;22.70;57.40;;;;;;5229065;28;20040;-68
2021/10/23 06:57:55;;;;;;;7.78;1.60;;;22.70;58.10;;;;;;5229663;28;20044;-68
2021/10/23 07:00:27;;;;;;;4.13;1.30;;;22.70;57.50;;;;;;5224402;28;20049;-68
2021/10/23 07:03:00;;;;;;;6.00;1.92;;;22.70;57.40;;;;;;5206565;28;20048;-67
2021/10/23 07:05:32;;;;;;;6.57;2.10;;;22.70;57.50;;;;;;5218150;28;20059;-67
2021/10/23 07:08:05;;;;;;;7.60;1.88;;;22.70;57.50;;;;;;5223002;28;20607;-67
2021/10/23 07:10:39;;;;;;;6.82;2.10;;;22.70;57.60;;;;;;5221021;28;20052;-67
2021/10/23 07:13:11;;;;;;;6.82;1.70;;;22.70;57.60;;;;;;5223234;28;20405;-67
2021/10/23 07:15:43;;;;;;;6.78;1.75;;;22.70;57.60;;;;;;5220381;28;21955;-67
2021/10/23 07:18:17;;;;;;;7.45;1.92;;;22.70;57.60;;;;;;5223212;28;20498;-67
2021/10/23 07:20:49;;;;;;;10.20;2.45;;;22.70;56.20;;;;;;5224346;28;20052;-66
2021/10/23 07:23:21;;;;;;;7.65;2.40;;;22.70;54.60;;;;;;5219780;28;20053;-67
2021/10/23 07:25:54;;;;;;;8.93;2.58;;;22.70;54.00;;;;;;5192860;28;20047;-67
2021/10/23 07:28:26;;;;;;;12.35;2.42;;;22.70;52.60;;;;;;5194242;28;20051;-67
2021/10/23 07:30:59;;;;;;;9.65;2.30;;;22.60;51.90;;;;;;5217687;28;20079;-67
2021/10/23 07:33:32;;;;;;;9.35;1.77;;;22.60;51.90;;;;;;5215017;28;20045;-67
2021/10/23 07:36:09;;;;;;;8.07;2.25;;;22.50;51.80;;;;;;5215421;28;20084;-67
2021/10/23 07:38:41;;;;;;;11.05;1.80;;;22.50;51.20;;;;;;5212241;28;20036;-68
2021/10/23 07:41:15;;;;;;;5.82;1.73;;;22.50;51.10;;;;;;5219732;28;20049;-67
2021/10/23 07:43:47;;;;;;;6.00;2.03;;;22.50;50.90;;;;;;5222956;28;20048;-67
2021/10/23 07:46:19;;;;;;;9.05;2.10;;;22.50;51.00;;;;;;5224657;28;20581;-68
2021/10/23 07:48:52;;;;;;;3.78;1.50;;;22.50;50.60;;;;;;5223366;28;20509;-67
2021/10/23 07:51:24;;;;;;;6.90;2.20;;;22.50;51.30;;;;;;5214520;28;20048;-68
2021/10/23 07:53:57;;;;;;;5.53;1.90;;;22.50;51.70;;;;;;5207200;28;20037;-68
2021/10/23 07:56:29;;;;;;;3.85;2.10;;;22.40;51.90;;;;;;5216544;28;20049;-68
2021/10/23 07:59:02;;;;;;;7.85;1.88;;;22.50;52.10;;;;;;5223472;28;20048;-68
2021/10/23 08:01:34;;;;;;;3.75;1.90;;;22.40;52.20;;;;;;5216513;28;20501;-67
2021/10/23 08:04:07;;;;;;;3.28;1.58;;;22.50;52.30;;;;;;5213307;28;20060;-68
2021/10/23 08:06:39;;;;;;;5.93;1.70;;;22.50;52.50;;;;;;5213853;28;20385;-68
2021/10/23 08:09:12;;;;;;;4.28;1.70;;;22.50;52.70;;;;;;5212300;28;20044;-67
2021/10/23 08:11:44;;;;;;;6.93;2.15;;;22.50;52.80;;;;;;5212197;28;20037;-67
2021/10/23 08:14:17;;;;;;;3.55;1.63;;;22.50;52.90;;;;;;5215057;28;20839;-67
2021/10/23 08:16:49;;;;;;;4.88;1.75;;;22.50;53.00;;;;;;5212523;28;20514;-68
2021/10/23 08:19:22;;;;;;;4.72;1.63;;;22.50;53.00;;;;;;5208151;28;20138;-67
2021/10/23 08:21:54;;;;;;;3.45;1.60;;;22.50;53.10;;;;;;5211357;28;20420;-68
2021/10/23 08:24:27;;;;;;;3.00;1.50;;;22.50;53.20;;;;;;5200598;28;20258;-68
2021/10/23 08:26:59;;;;;;;5.22;1.85;;;22.50;53.30;;;;;;5212097;28;20048;-68
2021/10/23 08:29:31;;;;;;;5.97;1.67;;;22.50;53.30;;;;;;5204773;28;20052;-68
2021/10/23 08:32:04;;;;;;;4.40;1.73;;;22.50;53.50;;;;;;5212482;28;20508;-68
2021/10/23 08:34:36;;;;;;;4.60;1.80;;;22.50;53.40;;;;;;5203423;28;20420;-68
2021/10/23 08:37:11;;;;;;;7.80;1.75;;;22.60;53.50;;;;;;5213114;28;20052;-68
2021/10/23 08:39:44;;;;;;;8.35;1.67;;;22.50;53.60;;;;;;5210259;28;20051;-68
2021/10/23 08:42:17;;;;;;;2.35;1.50;;;22.60;53.60;;;;;;5213947;28;20071;-68
2021/10/23 08:44:50;;;;;;;5.40;2.17;;;22.60;53.70;;;;;;5208995;28;20476;-68
2021/10/23 08:47:24;;;;;;;3.80;1.58;;;22.60;53.70;;;;;;5190715;28;20056;-68
2021/10/23 08:49:58;;;;;;;8.57;2.05;;;22.60;53.70;;;;;;5214863;28;20084;-68
2021/10/23 08:52:31;;;;;;;2.85;1.50;;;22.60;53.70;;;;;;5211238;28;20037;-68
2021/10/23 08:55:05;;;;;;;5.60;2.13;;;22.60;53.80;;;;;;5205710;28;20037;-68
2021/10/23 08:57:37;;;;;;;4.65;1.50;;;22.60;53.80;;;;;;5212957;28;20495;-68
2021/10/23 09:00:10;;;;;;;5.53;2.10;;;22.60;53.80;;;;;;5217801;28;20040;-68
2021/10/23 09:02:43;;;;;;;5.53;1.58;;;22.60;53.90;;;;;;5217426;28;20071;-68
2021/10/23 09:05:15;;;;;;;5.40;2.10;;;22.60;53.90;;;;;;5189927;28;20048;-68
2021/10/23 09:07:52;;;;;;;3.43;1.93;;;22.60;54.00;;;;;;5170138;28;20044;-68
2021/10/23 09:10:31;;;;;;;6.63;1.90;;;22.60;54.00;;;;;;5207690;28;20048;-68
2021/10/23 09:13:07;;;;;;;8.27;2.10;;;22.70;54.00;;;;;;5224524;28;20045;-68
2021/10/23 09:15:41;;;;;;;4.28;1.58;;;22.70;54.10;;;;;;5223591;28;20067;-68
2021/10/23 09:18:14;;;;;;;6.15;1.58;;;22.60;54.00;;;;;;5217104;28;20610;-68
2021/10/23 09:20:46;;;;;;;5.13;1.88;;;22.60;54.00;;;;;;5223792;28;20045;-69
2021/10/23 09:23:21;;;;;;;6.50;2.08;;;22.60;54.10;;;;;;5221961;28;20485;-68
2021/10/23 09:25:53;;;;;;;5.00;1.60;;;22.70;54.10;;;;;;5223372;28;20040;-69
2021/10/23 09:28:28;;;;;;;6.03;2.15;;;22.60;54.10;;;;;;5219843;28;20048;-68
2021/10/23 09:31:01;;;;;;;3.88;1.20;;;22.70;54.20;;;;;;5203633;28;20064;-68
2021/10/23 09:33:33;;;;;;;9.32;2.00;;;22.70;54.20;;;;;;5204129;28;20053;-68
2021/10/23 09:36:06;;;;;;;2.58;1.63;;;22.60;54.10;;;;;;5213294;28;20052;-68
2021/10/23 09:38:38;;;;;;;9.38;2.13;;;22.70;54.20;;;;;;5224843;28;20049;-68
2021/10/23 09:41:17;;;;;;;5.68;1.60;;;22.60;54.20;;;;;;5227893;28;20033;-69
2021/10/23 09:43:50;;;;;;;6.55;2.00;;;22.70;54.20;;;;;;5228452;28;20529;-69
2021/10/23 09:46:24;;;;;;;4.20;1.75;;;22.70;54.30;;;;;;5227504;28;20507;-68
2021/10/23 09:48:57;;;;;;;6.75;1.45;;;22.70;54.30;;;;;;5226158;28;20424;-68
2021/10/23 09:51:31;;;;;;;5.30;1.88;;;22.70;54.30;;;;;;5226651;28;20354;-68
2021/10/23 09:54:05;;;;;;;6.55;1.90;;;22.70;54.30;;;;;;5226439;28;20045;-68
2021/10/23 09:56:38;;;;;;;;;;;22.70;54.30;;;;;;5230010;28;20045;-68
2021/10/23 09:59:11;;;;;;;3.88;1.52;;;22.60;54.30;;;;;;5216053;28;19935;-69
2021/10/23 10:01:44;;;;;;;;;;;22.60;54.30;;;;;;5207281;28;20056;-68
2021/10/23 10:04:17;;;;;;;4.32;1.70;;;22.60;54.40;;;;;;5195787;28;19961;-68
2021/10/23 10:06:52;;;;;;;3.58;1.55;;;22.60;54.40;;;;;;5231186;28;20053;-69
2021/10/23 10:09:25;;;;;;;5.47;2.00;;;22.70;54.40;;;;;;5229996;28;20049;-68
2021/10/23 10:11:58;;;;;;;5.82;1.88;;;22.70;54.40;;;;;;5224979;28;20052;-69
2021/10/23 10:14:35;;;;;;;8.57;2.00;;;22.70;54.50;;;;;;5219398;28;20532;-69
2021/10/23 10:17:07;;;;;;;3.45;1.83;;;22.70;54.40;;;;;;5216154;28;21065;-69
2021/10/23 10:19:39;;;;;;;3.67;1.63;;;22.70;54.40;;;;;;5217585;28;20087;-69
2021/10/23 10:22:12;;;;;;;4.43;1.83;;;22.70;54.40;;;;;;5216154;28;20111;-68
2021/10/23 10:24:44;;;;;;;4.75;1.58;;;22.70;54.40;;;;;;5199554;28;20056;-68
2021/10/23 10:27:17;;;;;;;2.70;1.65;;;22.70;54.40;;;;;;5215501;28;20059;-68
2021/10/23 10:32:36;;;;;;;3.22;1.45;;;22.70;55.10;;;;;;5224765;28;20045;-69
2021/10/23 10:43:21;;;;;;;2.90;1.30;;;22.80;54.50;;;;;;5221129;28;20052;-69
2021/10/23 10:45:56;;;;;;;4.70;2.10;;;22.80;54.50;;;;;;5223117;28;20056;-67
2021/10/23 10:48:34;;;;;;;4.72;1.58;;;22.90;54.60;;;;;;5218588;28;20601;-68
2021/10/23 10:51:07;;;;;;;4.28;1.20;;;22.90;54.60;;;;;;5219545;28;20542;-68
2021/10/23 10:53:43;;;;;;;4.25;1.50;;;22.90;54.60;;;;;;5218806;28;20040;-68
2021/10/23 10:56:17;;;;;;;3.22;1.60;;;22.90;54.70;;;;;;5217130;28;20491;-68
2021/10/23 10:58:57;;;;;;;4.60;1.65;;;22.90;54.70;;;;;;5220288;28;20045;-68
2021/10/23 11:01:34;;;;;;;3.65;1.70;;;22.90;54.60;;;;;;5216997;28;20115;-68
2021/10/23 11:04:11;;;;;;;4.32;1.70;;;23.00;54.70;;;;;;5210692;28;20049;-68
2021/10/23 11:06:52;;;;;;;4.68;1.60;;;23.00;54.60;;;;;;5230198;28;20662;-68
2021/10/23 11:09:31;;;;;;;4.35;1.70;;;23.10;54.40;;;;;;5229466;28;20052;-68
2021/10/23 11:12:03;;;;;;;3.70;1.70;;;23.20;54.30;;;;;;5222180;28;21206;-69
2021/10/23 11:14:36;;;;;;;3.00;1.38;;;23.20;54.30;;;;;;5221682;28;20045;-68
2021/10/23 11:17:12;;;;;;;6.28;1.83;;;23.30;54.20;;;;;;5217318;28;20044;-68
2021/10/23 11:19:50;;;;;;;7.88;1.98;;;23.40;54.10;;;;;;5208762;28;20040;-68
2021/10/23 11:22:23;;;;;;;6.13;1.80;;;23.50;54.10;;;;;;5219977;28;20041;-68
2021/10/23 11:25:03;;;;;;;6.93;1.83;;;23.60;54.00;;;;;;5212074;28;20564;-67
2021/10/23 11:27:42;;;;;;;11.00;1.75;;;23.60;53.90;;;;;;5209218;28;20810;-66
2021/10/23 11:30:31;;;;;;;8.10;1.95;;;23.60;53.90;;;;;;5218542;28;20079;-68
2021/10/23 11:33:06;;;;;;;4.30;1.42;;;23.70;53.90;;;;;;5216544;28;20059;-68
2021/10/23 11:35:42;;;;;;;7.03;2.15;;;23.70;53.80;;;;;;5214094;28;20044;-68
2021/10/23 11:38:22;;;;;;;8.98;2.53;;;23.80;53.70;;;;;;5227201;28;20610;-68
2021/10/23 11:40:59;;;;;;;11.70;1.90;;;23.80;53.40;;;;;;5222880;28;20037;-68
2021/10/23 11:43:39;;;;;;;3.90;1.30;;;23.90;53.30;;;;;;5217083;28;20044;-68
2021/10/23 11:46:13;;;;;;;6.28;1.45;;;23.80;53.10;;;;;;5218371;28;20055;-68
2021/10/23 11:49:02;;;;;;;4.75;1.80;;;23.80;53.00;;;;;;5220461;28;20063;-68
2021/10/23 11:51:34;;;;;;;9.80;1.60;;;23.80;52.70;;;;;;5221267;28;20048;-69
2021/10/23 11:54:07;;;;;;;8.55;1.85;;;23.80;52.70;;;;;;5216803;28;20055;-68
2021/10/23 11:56:48;;;;;;;4.80;1.60;;;23.80;52.60;;;;;;5217355;28;20045;-68
2021/10/23 11:59:24;;;;;;;4.25;1.30;;;23.80;52.60;;;;;;5221019;28;20673;-67
2021/10/23 12:01:56;;;;;;;5.97;1.40;;;23.80;52.50;;;;;;5224041;28;20411;-68
2021/10/23 12:04:30;;;;;;;3.35;1.52;;;23.80;52.60;;;;;;5209391;28;20515;-68
2021/10/23 12:07:03;;;;;;;4.85;1.60;;;23.80;52.60;;;;;;5222480;28;20045;-68
2021/10/23 12:09:35;;;;;;;4.65;1.48;;;23.70;52.50;;;;;;5226421;28;20056;-68
2021/10/23 12:12:09;;;;;;;2.58;1.73;;;23.70;52.50;;;;;;5224593;28;20417;-68
2021/10/23 12:14:42;;;;;;;5.15;1.42;;;23.70;52.60;;;;;;5215811;28;20040;-68
2021/10/23 12:17:24;;;;;;;2.88;1.33;;;23.70;52.50;;;;;;5219521;28;20619;-68
2021/10/23 12:20:12;;;;;;;2.97;1.20;;;23.70;52.40;;;;;;5211751;28;20041;-68
2021/10/23 12:22:44;;;;;;;3.75;1.45;;;23.80;52.50;;;;;;5219677;28;20533;-68
2021/10/23 12:25:17;;;;;;;2.55;1.10;;;23.70;52.50;;;;;;5217614;28;20072;-68
2021/10/23 12:28:00;;;;;;;3.72;1.25;;;23.70;52.40;;;;;;5209798;28;20045;-68
2021/10/23 12:30:33;;;;;;;3.45;1.20;;;23.70;52.80;;;;;;5201114;28;20052;-68
2021/10/23 12:33:05;;;;;;;4.18;1.40;;;23.70;52.10;;;;;;5209575;28;20308;-68
2021/10/23 12:35:38;;;;;;;2.45;1.27;;;23.80;52.20;;;;;;5219411;28;20402;-68
2021/10/23 12:38:10;;;;;;;4.93;1.40;;;23.80;52.00;;;;;;5218813;28;20052;-68
2021/10/23 12:40:43;;;;;;;3.27;1.40;;;23.90;51.90;;;;;;5221693;28;20048;-68
2021/10/23 12:43:19;;;;;;;8.80;1.52;;;23.90;51.80;;;;;;5209427;28;20045;-68
2021/10/23 12:45:53;;;;;;;2.00;1.00;;;23.90;51.70;;;;;;5212207;28;20469;-68
2021/10/23 12:48:26;;;;;;;2.92;1.00;;;23.90;51.50;;;;;;5203602;28;20500;-68
2021/10/23 12:50:58;;;;;;;3.95;1.65;;;24.00;51.40;;;;;;5213633;28;21980;-68
2021/10/23 12:53:31;;;;;;;4.87;1.20;;;24.00;51.40;;;;;;5196302;28;20926;-68
2021/10/23 12:56:03;;;;;;;3.33;1.42;;;24.00;51.10;;;;;;5211065;28;20049;-68
2021/10/23 12:58:36;;;;;;;3.55;1.20;;;24.00;50.90;;;;;;5198225;28;20397;-69
2021/10/23 13:01:08;;;;;;;2.70;1.08;;;24.00;50.60;;;;;;5212150;28;20048;-68
2021/10/23 13:03:42;;;;;;;1.87;1.20;;;24.10;50.60;;;;;;5214838;28;20053;-68
2021/10/23 13:06:14;;;;;;;2.20;1.13;;;24.20;50.50;;;;;;5213797;28;20299;-68
2021/10/23 13:08:47;;;;;;;2.58;0.93;;;24.30;50.40;;;;;;5190773;28;20063;-68
2021/10/23 13:11:19;;;;;;;2.13;1.15;;;24.40;50.10;;;;;;5197184;28;20033;-68
2021/10/23 13:13:51;;;;;;;2.88;1.20;;;24.50;50.10;;;;;;5220497;28;20037;-69
2021/10/23 13:16:24;;;;;;;4.43;0.90;;;24.60;49.90;;;;;;5219031;28;20378;-69
2021/10/23 13:18:56;;;;;;;2.33;1.10;;;24.70;49.60;;;;;;5201189;28;20048;-69
2021/10/23 13:21:29;;;;;;;5.72;1.30;;;24.80;49.50;;;;;;5210805;28;20052;-69
2021/10/23 13:24:01;;;;;;;5.80;1.50;;;24.90;49.30;;;;;;5197364;28;20052;-68
2021/10/23 13:26:33;;;;;;;1.42;0.90;;;25.10;49.00;;;;;;5215562;28;20056;-68
2021/10/23 13:29:06;;;;;;;2.17;1.15;;;25.20;48.80;;;;;;5221640;28;20459;-68
2021/10/23 13:31:38;;;;;;;3.92;1.02;;;25.30;48.60;;;;;;5225183;28;20084;-68